createdAt,value
2022-12-18T00:02:14.041Z,15.75
2022-12-18T00:04:41.369Z,15.50
2022-12-18T00:07:08.180Z,15.38
2022-12-18T00:09:39.801Z,16.17
2022-12-18T00:14:46.340Z,13.70
2022-12-18T00:17:13.141Z,16.20
2022-12-18T00:19:40.002Z,14.38
2022-12-18T00:22:07.681Z,15.73
2022-12-18T00:24:34.502Z,13.77
2022-12-18T00:27:01.401Z,13.32
2022-12-18T00:29:28.242Z,14.15
2022-12-18T00:31:55.116Z,14.77
2022-12-18T00:34:22.020Z,14.05
2022-12-18T00:36:49.060Z,13.02
2022-12-18T00:39:15.920Z,13.40
2022-12-18T00:42:01.280Z,14.88
2022-12-18T00:44:28.106Z,12.95
2022-12-18T00:46:54.921Z,13.00
2022-12-18T00:49:21.900Z,13.05
2022-12-18T00:51:48.920Z,11.82
2022-12-18T00:54:16.320Z,11.30
2022-12-18T00:56:49.493Z,12.20
2022-12-18T00:59:17.830Z,12.73
2022-12-18T01:01:44.895Z,10.77
2022-12-18T01:04:11.901Z,11.88
2022-12-18T01:06:38.780Z,11.07
2022-12-18T01:09:06.982Z,11.68
2022-12-18T01:11:33.881Z,11.38
2022-12-18T01:14:03.480Z,10.65
2022-12-18T01:16:30.468Z,10.57
2022-12-18T01:18:57.472Z,11.07
2022-12-18T01:21:24.521Z,10.80
2022-12-18T01:23:55.624Z,10.60
2022-12-18T01:26:22.645Z,10.65
2022-12-18T01:28:49.520Z,10.48
2022-12-18T01:31:24.281Z,10.70
2022-12-18T01:33:52.280Z,10.70
2022-12-18T01:36:20.661Z,9.80
2022-12-18T01:38:47.720Z,9.95
2022-12-18T01:41:14.941Z,10.32
2022-12-18T01:43:52.320Z,10.60
2022-12-18T01:46:20.003Z,9.95
2022-12-18T01:48:48.741Z,10.30
2022-12-18T01:51:15.681Z,10.68
2022-12-18T01:53:42.860Z,11.00
2022-12-18T01:56:10.797Z,9.88
2022-12-18T01:59:00.786Z,10.80
2022-12-18T02:01:27.935Z,10.70
2022-12-18T02:03:55.000Z,10.00
2022-12-18T02:06:32.060Z,9.55
2022-12-18T02:09:10.841Z,11.20
2022-12-18T02:12:10.861Z,10.93
2022-12-18T02:14:40.561Z,10.43
2022-12-18T02:17:12.960Z,10.88
2022-12-18T02:19:39.643Z,10.73
2022-12-18T02:22:28.020Z,11.75
2022-12-18T02:25:13.080Z,11.88
2022-12-18T02:27:40.280Z,12.35
2022-12-18T02:30:07.579Z,11.73
2022-12-18T02:32:40.280Z,12.25
2022-12-18T02:35:08.701Z,12.60
2022-12-18T02:37:35.505Z,12.52
2022-12-18T02:40:02.414Z,12.38
2022-12-18T02:42:29.320Z,12.60
2022-12-18T02:44:56.159Z,12.43
2022-12-18T02:47:24.323Z,11.90
2022-12-18T02:50:22.092Z,12.43
2022-12-18T02:53:40.109Z,11.75
2022-12-18T02:56:08.699Z,10.95
2022-12-18T02:58:57.260Z,11.57
2022-12-18T03:02:08.807Z,12.15
2022-12-18T03:04:38.720Z,12.10
2022-12-18T03:07:08.060Z,11.63
2022-12-18T03:09:39.560Z,12.15
2022-12-18T03:12:24.942Z,12.43
2022-12-18T03:15:02.560Z,11.90
2022-12-18T03:17:29.600Z,11.20
2022-12-18T03:19:58.263Z,11.80
2022-12-18T03:22:25.420Z,12.68
2022-12-18T03:24:52.280Z,12.38
2022-12-18T03:27:19.739Z,12.48
2022-12-18T03:29:57.040Z,11.90
2022-12-18T03:32:32.025Z,11.50
2022-12-18T03:34:59.920Z,11.50
2022-12-18T03:37:26.760Z,11.05
2022-12-18T03:39:53.544Z,11.50
2022-12-18T03:42:51.140Z,11.90
2022-12-18T03:45:22.440Z,10.98
2022-12-18T03:48:08.961Z,11.70
2022-12-18T03:50:40.701Z,11.18
2022-12-18T03:53:29.740Z,12.13
2022-12-18T03:55:56.621Z,11.05
2022-12-18T03:58:25.722Z,10.90
2022-12-18T04:00:53.528Z,10.35
2022-12-18T04:03:23.991Z,11.70
2022-12-18T04:05:53.341Z,10.27
2022-12-18T04:08:20.240Z,10.52
2022-12-18T04:10:47.041Z,10.00
2022-12-18T04:13:13.912Z,10.35
2022-12-18T04:15:40.818Z,10.93
2022-12-18T04:18:08.641Z,10.43
2022-12-18T04:20:35.520Z,9.70
2022-12-18T04:23:02.323Z,9.80
2022-12-18T04:25:29.220Z,9.18
2022-12-18T04:27:56.060Z,10.77
2022-12-18T04:30:22.863Z,10.35
2022-12-18T04:32:52.386Z,9.73
2022-12-18T04:35:19.383Z,9.63
2022-12-18T04:37:46.243Z,9.55
2022-12-18T04:40:13.440Z,9.23
2022-12-18T04:42:41.480Z,10.20
2022-12-18T04:45:09.260Z,9.63
2022-12-18T04:47:36.161Z,8.90
2022-12-18T04:50:02.980Z,9.30
2022-12-18T04:52:32.781Z,9.90
2022-12-18T04:54:59.584Z,8.23
2022-12-18T04:57:27.241Z,9.23
2022-12-18T04:59:54.081Z,8.93
2022-12-18T05:02:21.014Z,8.18
2022-12-18T05:04:48.001Z,8.77
2022-12-18T05:07:14.821Z,8.75
2022-12-18T05:09:41.860Z,9.38
2022-12-18T05:12:08.660Z,8.65
2022-12-18T05:14:35.500Z,8.50
2022-12-18T05:17:02.320Z,9.07
2022-12-18T05:19:29.161Z,9.38
2022-12-18T05:21:55.962Z,9.13
2022-12-18T05:24:22.781Z,8.35
2022-12-18T05:26:49.601Z,8.68
2022-12-18T05:29:16.520Z,9.00
2022-12-18T05:31:43.396Z,9.23
2022-12-18T05:34:10.616Z,8.55
2022-12-18T05:36:38.340Z,8.38
2022-12-18T05:39:05.161Z,8.60
2022-12-18T05:41:32.921Z,8.43
2022-12-18T05:43:59.904Z,8.68
2022-12-18T05:46:26.795Z,8.35
2022-12-18T05:48:53.640Z,7.93
2022-12-18T05:51:21.481Z,8.52
2022-12-18T05:53:48.404Z,8.38
2022-12-18T05:56:17.701Z,8.52
2022-12-18T05:58:44.801Z,7.38
2022-12-18T06:01:16.755Z,8.35
2022-12-18T06:03:44.211Z,7.38
2022-12-18T06:06:20.700Z,7.72
2022-12-18T06:08:47.743Z,7.82
2022-12-18T06:11:16.800Z,7.78
2022-12-18T06:13:43.661Z,8.85
2022-12-18T06:16:10.565Z,7.20
2022-12-18T06:18:40.585Z,8.55
2022-12-18T06:21:07.560Z,7.88
2022-12-18T06:23:34.440Z,8.02
2022-12-18T06:26:08.161Z,8.40
2022-12-18T06:28:35.490Z,8.02
2022-12-18T06:31:04.298Z,8.38
2022-12-18T06:33:31.260Z,8.10
2022-12-18T06:36:08.682Z,7.78
2022-12-18T06:38:35.880Z,7.72
2022-12-18T06:41:10.608Z,7.53
2022-12-18T06:43:37.991Z,7.45
2022-12-18T06:46:05.738Z,8.35
2022-12-18T06:48:32.823Z,7.90
2022-12-18T06:50:59.740Z,8.43
2022-12-18T06:53:26.681Z,8.32
2022-12-18T06:55:53.602Z,8.68
2022-12-18T06:58:20.540Z,7.78
2022-12-18T07:00:47.668Z,8.13
2022-12-18T07:03:14.611Z,8.13
2022-12-18T07:05:42.003Z,8.02
2022-12-18T07:08:09.280Z,8.07
2022-12-18T07:10:47.406Z,8.27
2022-12-18T07:13:14.420Z,8.45
2022-12-18T07:15:42.241Z,6.80
2022-12-18T07:18:09.821Z,8.25
2022-12-18T07:20:36.703Z,8.20
2022-12-18T07:23:04.880Z,7.28
2022-12-18T07:25:34.561Z,7.97
2022-12-18T07:28:01.491Z,6.93
2022-12-18T07:30:28.441Z,7.07
2022-12-18T07:32:55.281Z,7.68
2022-12-18T07:35:25.247Z,7.43
2022-12-18T07:37:52.423Z,8.02
2022-12-18T07:40:19.300Z,7.55
2022-12-18T07:42:46.143Z,7.50
2022-12-18T07:45:13.102Z,8.25
2022-12-18T07:47:42.305Z,7.82
2022-12-18T07:50:09.421Z,7.05
2022-12-18T07:52:36.320Z,7.70
2022-12-18T07:55:03.640Z,7.45
2022-12-18T08:00:17.700Z,7.55
2022-12-18T08:02:44.633Z,7.38
2022-12-18T08:05:11.583Z,6.57
2022-12-18T08:07:38.461Z,7.53
2022-12-18T08:10:05.722Z,7.68
2022-12-18T08:12:33.280Z,8.25
2022-12-18T08:15:00.061Z,7.38
2022-12-18T08:17:26.942Z,7.85
2022-12-18T08:19:53.760Z,7.22
2022-12-18T08:22:20.601Z,7.90
2022-12-18T08:24:47.544Z,8.60
2022-12-18T08:27:28.937Z,7.45
2022-12-18T08:29:56.924Z,7.57
2022-12-18T08:32:24.239Z,7.63
2022-12-18T08:34:51.165Z,7.75
2022-12-18T08:37:18.020Z,7.30
2022-12-18T08:39:44.881Z,7.15
2022-12-18T08:42:30.364Z,7.90
2022-12-18T08:44:57.223Z,8.02
2022-12-18T08:47:24.104Z,8.30
2022-12-18T08:49:50.982Z,7.47
2022-12-18T08:52:17.761Z,7.75
2022-12-18T08:54:44.684Z,7.18
2022-12-18T08:57:11.501Z,7.20
2022-12-18T08:59:38.383Z,8.25
2022-12-18T09:02:05.403Z,7.97
2022-12-18T09:04:32.442Z,7.65
2022-12-18T09:06:59.343Z,6.68
2022-12-18T09:09:26.221Z,7.57
2022-12-18T09:11:53.180Z,7.43
2022-12-18T09:14:20.065Z,6.60
2022-12-18T09:16:46.962Z,7.40
2022-12-18T09:19:14.461Z,7.22
2022-12-18T09:21:46.270Z,6.80
2022-12-18T09:24:15.202Z,7.53
2022-12-18T09:26:43.665Z,6.95
2022-12-18T09:29:14.093Z,7.43
2022-12-18T09:31:41.653Z,6.93
2022-12-18T09:34:08.649Z,7.25
2022-12-18T09:36:35.594Z,7.57
2022-12-18T09:39:07.585Z,7.18
2022-12-18T09:41:58.038Z,7.07
2022-12-18T09:44:26.316Z,6.78
2022-12-18T09:46:59.379Z,7.22
2022-12-18T09:49:28.952Z,7.00
2022-12-18T09:51:57.108Z,7.47
2022-12-18T09:54:34.434Z,6.90
2022-12-18T09:57:01.416Z,6.65
2022-12-18T09:59:33.670Z,6.85
2022-12-18T10:02:00.804Z,7.13
2022-12-18T10:04:28.705Z,7.20
2022-12-18T10:07:22.284Z,6.90
2022-12-18T10:09:59.973Z,7.07
2022-12-18T10:12:42.351Z,6.90
2022-12-18T10:15:21.900Z,7.10
2022-12-18T10:18:26.051Z,7.35
2022-12-18T10:20:54.291Z,6.57
2022-12-18T10:23:48.311Z,6.93
2022-12-18T10:26:15.636Z,6.22
2022-12-18T10:28:43.817Z,7.00
2022-12-18T10:31:21.372Z,6.65
2022-12-18T10:33:51.800Z,7.25
2022-12-18T10:36:18.849Z,6.68
2022-12-18T10:38:45.714Z,6.78
2022-12-18T10:41:21.790Z,6.78
2022-12-18T10:43:48.813Z,6.32
2022-12-18T10:46:18.193Z,6.97
2022-12-18T10:48:48.400Z,6.57
2022-12-18T10:51:25.968Z,6.55
2022-12-18T10:54:15.955Z,6.53
2022-12-18T10:56:42.879Z,6.22
2022-12-18T10:59:12.959Z,6.35
2022-12-18T11:01:47.161Z,6.28
2022-12-18T11:04:18.571Z,6.30
2022-12-18T11:07:07.978Z,5.97
2022-12-18T11:09:39.256Z,6.25
2022-12-18T11:12:20.056Z,5.53
2022-12-18T11:14:54.074Z,5.72
2022-12-18T11:17:25.842Z,6.05
2022-12-18T11:19:59.481Z,5.43
2022-12-18T11:22:30.317Z,5.53
2022-12-18T11:27:59.734Z,6.53
2022-12-18T11:30:31.673Z,6.03
2022-12-18T11:33:08.515Z,5.35
2022-12-18T11:35:54.912Z,5.82
2022-12-18T11:38:29.356Z,5.30
2022-12-18T11:41:48.874Z,6.15
2022-12-18T11:44:29.734Z,5.40
2022-12-18T11:47:01.593Z,5.50
2022-12-18T11:49:31.896Z,5.07
2022-12-18T11:52:11.232Z,5.15
2022-12-18T11:54:38.014Z,5.63
2022-12-18T11:57:11.391Z,5.75
2022-12-18T11:59:55.217Z,5.25
2022-12-18T12:02:32.241Z,5.75
2022-12-18T12:05:18.639Z,5.90
2022-12-18T12:07:56.393Z,5.40
2022-12-18T12:10:41.133Z,6.07
2022-12-18T12:13:19.014Z,5.53
2022-12-18T12:15:54.474Z,5.80
2022-12-18T12:18:45.754Z,5.80
2022-12-18T12:21:42.935Z,5.63
2022-12-18T12:24:15.353Z,4.65
2022-12-18T12:27:13.355Z,4.88
2022-12-18T12:29:42.840Z,5.13
2022-12-18T12:32:27.840Z,6.05
2022-12-18T12:35:19.353Z,5.43
2022-12-18T12:38:23.378Z,4.90
2022-12-18T12:41:03.511Z,5.18
2022-12-18T12:43:49.396Z,5.03
2022-12-18T12:46:32.463Z,5.55
2022-12-18T12:49:10.812Z,5.18
2022-12-18T12:51:39.754Z,5.53
2022-12-18T12:54:14.121Z,5.15
2022-12-18T12:56:49.375Z,4.75
2022-12-18T12:59:39.782Z,5.28
2022-12-18T13:02:10.998Z,5.30
2022-12-18T13:04:43.694Z,5.22
2022-12-18T13:07:30.733Z,5.63
2022-12-18T13:10:25.724Z,5.50
2022-12-18T13:12:57.354Z,4.97
2022-12-18T13:15:25.872Z,5.00
2022-12-18T13:18:11.035Z,5.25
2022-12-18T13:21:03.300Z,5.88
2022-12-18T13:23:33.356Z,5.65
2022-12-18T13:26:00.081Z,5.25
2022-12-18T13:28:49.052Z,5.22
2022-12-18T13:31:35.254Z,4.80
2022-12-18T13:34:26.721Z,5.18
2022-12-18T13:36:55.996Z,5.35
2022-12-18T13:39:40.932Z,5.45
2022-12-18T13:42:08.582Z,4.97
2022-12-18T13:44:42.240Z,5.38
2022-12-18T13:47:34.773Z,5.63
2022-12-18T13:50:02.936Z,5.25
2022-12-18T13:52:30.337Z,5.63
2022-12-18T13:54:58.293Z,5.22
2022-12-18T13:57:32.436Z,5.18
2022-12-18T13:59:59.835Z,5.50
2022-12-18T14:02:28.678Z,5.25
2022-12-18T14:04:56.388Z,5.47
2022-12-18T14:07:24.980Z,5.10
2022-12-18T14:10:06.475Z,5.15
2022-12-18T14:13:03.797Z,5.03
2022-12-18T14:15:40.591Z,4.53
2022-12-18T14:18:16.855Z,4.72
2022-12-18T14:20:52.853Z,5.50
2022-12-18T14:23:40.009Z,5.05
2022-12-18T14:26:28.253Z,5.18
2022-12-18T14:28:56.591Z,5.28
2022-12-18T14:31:27.573Z,5.50
2022-12-18T14:33:54.935Z,4.93
2022-12-18T14:36:25.812Z,4.97
2022-12-18T14:38:59.712Z,5.53
2022-12-18T14:41:26.914Z,5.35
2022-12-18T14:43:55.046Z,5.57
2022-12-18T14:46:43.448Z,5.07
2022-12-18T14:49:35.372Z,5.63
2022-12-18T14:52:04.369Z,5.43
2022-12-18T14:54:31.416Z,5.70
2022-12-18T14:57:04.163Z,5.13
2022-12-18T14:59:31.073Z,6.25
2022-12-18T15:02:21.568Z,5.32
2022-12-18T15:04:48.548Z,6.15
2022-12-18T15:07:18.472Z,6.38
2022-12-18T15:10:04.497Z,6.30
2022-12-18T15:12:44.375Z,6.40
2022-12-18T15:15:39.087Z,6.00
2022-12-18T15:18:08.713Z,6.30
2022-12-18T15:20:55.917Z,7.15
2022-12-18T15:23:24.614Z,6.78
2022-12-18T15:26:11.573Z,6.60
2022-12-18T15:28:44.815Z,6.65
2022-12-18T15:31:14.747Z,6.72
2022-12-18T15:33:47.146Z,7.63
2022-12-18T15:36:15.286Z,6.57
2022-12-18T15:38:47.210Z,7.75
2022-12-18T15:41:24.485Z,7.63
2022-12-18T15:43:52.729Z,8.13
2022-12-18T15:46:23.925Z,8.02
2022-12-18T15:48:55.498Z,8.57
2022-12-18T15:51:34.015Z,8.30
2022-12-18T15:54:02.007Z,7.78
2022-12-18T15:56:47.321Z,8.10
2022-12-18T15:59:18.767Z,8.40
2022-12-18T16:01:49.798Z,8.30
2022-12-18T16:04:18.146Z,8.75
2022-12-18T16:07:13.419Z,8.00
2022-12-18T16:09:31.672Z,8.82
2022-12-18T16:12:01.228Z,8.60
2022-12-18T16:14:32.149Z,8.68
2022-12-18T16:17:00.780Z,8.85
2022-12-18T16:19:28.733Z,8.68
2022-12-18T16:21:56.509Z,8.52
2022-12-18T16:24:27.769Z,9.40
2022-12-18T16:26:54.892Z,10.02
2022-12-18T16:29:28.078Z,9.07
2022-12-18T16:31:55.865Z,9.48
2022-12-18T16:34:28.749Z,9.02
2022-12-18T16:37:01.708Z,9.38
2022-12-18T16:39:33.065Z,9.13
2022-12-18T16:42:00.049Z,9.00
2022-12-18T16:44:28.825Z,9.38
2022-12-18T16:46:55.757Z,8.18
2022-12-18T16:49:22.669Z,9.32
2022-12-18T16:51:49.461Z,8.32
2022-12-18T16:54:19.002Z,8.93
2022-12-18T16:56:49.873Z,9.40
2022-12-18T16:59:16.685Z,8.90
2022-12-18T17:01:44.855Z,9.07
2022-12-18T17:04:12.006Z,8.65
2022-12-18T17:06:43.307Z,8.73
2022-12-18T17:09:13.185Z,8.60
2022-12-18T17:11:39.944Z,9.13
2022-12-18T17:14:12.632Z,8.73
2022-12-18T17:16:40.119Z,9.10
2022-12-18T17:19:12.103Z,8.05
2022-12-18T17:21:42.050Z,7.70
2022-12-18T17:24:09.013Z,9.45
2022-12-18T17:26:35.785Z,8.75
2022-12-18T17:29:02.588Z,8.95
2022-12-18T17:31:30.001Z,9.57
2022-12-18T17:33:57.488Z,9.50
2022-12-18T17:36:24.762Z,9.38
2022-12-18T17:38:52.764Z,10.02
2022-12-18T17:41:19.644Z,8.65
2022-12-18T17:43:55.106Z,8.93
2022-12-18T17:46:22.084Z,8.52
2022-12-18T17:48:48.866Z,9.52
2022-12-18T17:51:15.923Z,9.32
2022-12-18T17:53:43.171Z,8.80
2022-12-18T17:56:13.937Z,8.80
2022-12-18T17:58:41.938Z,8.55
2022-12-18T18:01:09.043Z,9.20
2022-12-18T18:03:38.351Z,9.20
2022-12-18T18:06:06.133Z,9.55
2022-12-18T18:08:33.888Z,9.18
2022-12-18T18:11:26.306Z,8.82
2022-12-18T18:14:05.542Z,9.65
2022-12-18T18:16:40.574Z,9.25
2022-12-18T18:19:09.122Z,8.93
2022-12-18T18:21:41.153Z,9.45
2022-12-18T18:24:08.773Z,9.38
2022-12-18T18:26:35.847Z,8.88
2022-12-18T18:29:03.314Z,9.32
2022-12-18T18:31:32.652Z,10.15
2022-12-18T18:34:01.244Z,9.55
2022-12-18T18:36:28.124Z,10.90
2022-12-18T18:38:59.386Z,10.05
2022-12-18T18:41:26.301Z,10.88
2022-12-18T18:43:57.024Z,10.65
2022-12-18T18:46:24.064Z,10.70
2022-12-18T18:48:50.888Z,9.73
2022-12-18T18:51:21.190Z,9.93
2022-12-18T18:53:49.762Z,9.80
2022-12-18T18:56:56.349Z,10.35
2022-12-18T18:59:04.764Z,10.20
2022-12-18T19:01:31.683Z,10.18
2022-12-18T19:03:58.524Z,10.98
2022-12-18T19:06:27.324Z,10.25
2022-12-18T19:08:55.426Z,9.88
2022-12-18T19:11:41.828Z,9.65
2022-12-18T19:14:09.388Z,10.23
2022-12-18T19:16:36.320Z,9.48
2022-12-18T19:19:03.283Z,10.35
2022-12-18T19:21:34.226Z,9.40
2022-12-18T19:24:02.698Z,9.23
2022-12-18T19:26:29.986Z,11.00
2022-12-18T19:29:04.655Z,9.48
2022-12-18T19:31:35.912Z,10.38
2022-12-18T19:34:07.255Z,10.73
2022-12-18T19:36:35.364Z,10.82
2022-12-18T19:39:02.427Z,10.15
2022-12-18T19:41:31.415Z,10.35
2022-12-18T19:43:59.861Z,10.77
2022-12-18T19:46:27.781Z,9.82
2022-12-18T19:48:54.669Z,10.68
2022-12-18T19:51:23.622Z,10.48
2022-12-18T19:53:55.122Z,10.45
2022-12-18T19:56:26.875Z,10.65
2022-12-18T19:58:54.110Z,10.90
2022-12-18T20:01:21.836Z,9.40
2022-12-18T20:03:52.740Z,9.63
2022-12-18T20:06:34.827Z,10.07
2022-12-18T20:09:05.805Z,10.63
2022-12-18T20:11:33.165Z,10.20
2022-12-18T20:14:02.247Z,10.10
2022-12-18T20:16:29.284Z,11.07
2022-12-18T20:18:57.174Z,9.90
2022-12-18T20:21:25.373Z,10.45
2022-12-18T20:23:52.464Z,10.75
2022-12-18T20:26:19.464Z,10.68
2022-12-18T20:28:46.326Z,10.25
2022-12-18T20:31:14.188Z,10.82
2022-12-18T20:33:42.250Z,10.38
2022-12-18T20:36:15.166Z,10.95
2022-12-18T20:38:42.327Z,11.73
2022-12-18T20:41:17.924Z,9.98
2022-12-18T20:43:45.532Z,10.90
2022-12-18T20:46:13.634Z,11.85
2022-12-18T20:48:40.570Z,10.50
2022-12-18T20:51:09.043Z,11.52
2022-12-18T20:53:36.112Z,10.57
2022-12-18T20:56:11.809Z,12.25
2022-12-18T20:58:38.748Z,10.10
2022-12-18T21:01:12.463Z,11.57
2022-12-18T21:03:40.239Z,11.10
2022-12-18T21:06:07.414Z,10.77
2022-12-18T21:08:34.342Z,10.93
2022-12-18T21:11:38.126Z,11.50
2022-12-18T21:14:25.892Z,10.88
2022-12-18T21:16:56.077Z,11.27
2022-12-18T21:19:25.229Z,11.82
2022-12-18T21:21:52.925Z,10.85
2022-12-18T21:24:19.807Z,11.70
2022-12-18T21:26:47.228Z,11.45
2022-12-18T21:29:27.024Z,10.73
2022-12-18T21:31:54.813Z,10.57
2022-12-18T21:34:23.647Z,10.00
2022-12-18T21:36:50.422Z,11.30
2022-12-18T21:39:17.494Z,11.93
2022-12-18T21:42:03.538Z,10.85
2022-12-18T21:44:30.628Z,12.00
2022-12-18T21:47:12.269Z,11.27
2022-12-18T21:49:49.385Z,11.70
2022-12-18T21:52:16.938Z,13.07
2022-12-18T21:54:43.730Z,10.45
2022-12-18T21:57:11.025Z,12.18
2022-12-18T21:59:39.006Z,12.32
2022-12-18T22:02:15.181Z,11.70
2022-12-18T22:04:42.739Z,10.68
2022-12-18T22:07:10.515Z,11.90
2022-12-18T22:09:38.104Z,11.07
2022-12-18T22:12:04.982Z,11.57
2022-12-18T22:14:31.975Z,12.30
2022-12-18T22:16:58.846Z,11.60
2022-12-18T22:19:26.674Z,11.65
2022-12-18T22:21:54.007Z,11.63
2022-12-18T22:24:22.513Z,10.57
2022-12-18T22:26:49.931Z,11.68
2022-12-18T22:29:36.486Z,11.73
2022-12-18T22:32:04.364Z,10.60
2022-12-18T22:34:36.345Z,11.00
2022-12-18T22:37:03.593Z,12.10
2022-12-18T22:39:30.536Z,10.68
2022-12-18T22:41:57.865Z,11.63
2022-12-18T22:44:27.609Z,10.05
2022-12-18T22:47:06.895Z,11.40
2022-12-18T22:49:35.053Z,11.18
2022-12-18T22:52:05.883Z,11.43
2022-12-18T22:54:32.664Z,11.07
2022-12-18T22:56:59.445Z,10.98
2022-12-18T22:59:26.684Z,12.50
2022-12-18T23:01:58.603Z,12.23
2022-12-18T23:04:36.277Z,11.88
2022-12-18T23:07:05.130Z,10.45
2022-12-18T23:09:32.204Z,10.52
2022-12-18T23:11:59.131Z,11.73
2022-12-18T23:14:25.970Z,10.80
2022-12-18T23:16:53.198Z,10.88
2022-12-18T23:19:20.583Z,11.52
2022-12-18T23:21:47.450Z,11.48
2022-12-18T23:24:14.487Z,11.35
2022-12-18T23:26:41.387Z,11.93
2022-12-18T23:29:08.225Z,11.32
2022-12-18T23:31:36.617Z,11.55
2022-12-18T23:34:03.684Z,11.23
2022-12-18T23:36:30.525Z,10.20
2022-12-18T23:39:00.813Z,11.10
2022-12-18T23:41:30.191Z,10.27
2022-12-18T23:43:57.724Z,11.68
2022-12-18T23:46:29.481Z,11.68
2022-12-18T23:48:57.807Z,12.90
2022-12-18T23:51:25.750Z,11.25
2022-12-18T23:53:56.924Z,11.75
2022-12-18T23:56:23.889Z,12.57
2022-12-18T23:58:52.074Z,11.43
